Portada
METAR-TAF:

METAR-TAF

Aeroports :

Greenville, Mississipí, Estats Units d'Amèrica

latitud: 33-28-58N, longitud: 090-59-08W, altitud: 40 m

Observació

L'informe es va fer fa 33 minuts, a les 06:53 UTC
Vent calma
Temperatura -1°C
Humitat 80%
Pressió 1030 hPa
Visibilitat: 16.1 km
Cel clar

METAR: KGLH 220653Z AUTO 00000KT 10SM CLR M01/M04 A3041 RMK AO2 SLP308 T10111039

Hora: 01:26 (07:26 UTC)

Pronòstic

L'informe es va fer fa 1 hora i 45 minuts, a les 05:41 UTC
Pronòstic vàlid del 22 a les 06 UTC al 23 a les 06 UTC
Vent 5 kt del Nord-Est
Visibilitat: 10 km
Cel ennuvolat a una alçada de 25000 ft
A partir de les 22 a les 2100 UTC
Vent 9 kt del Sud-Est
Visibilitat: 10 km
Cel ennuvolat a una alçada de 10000 ft
A partir de les 23 a les 0000 UTC
Vent 5 kt del Sud-Est
Visibilitat: 10 km
Cel cobert a una alçada de 8000 ft
xàfecs en les proximitats

TAF: KGLH 220541Z 2206/2306 05005KT P6SM BKN250 FM222100 14009KT P6SM BKN100 FM230000 14005KT P6SM VCSH OVC080

Observacions i pronòstics meteorològics de més de 4000 aeroports (METAR i TAF).

Les estacions disponibles són els punts grocs i vermells al mapa.

Posi el ratolí al punt desitjat per veure el nom de l'estació.

Feu clic per veure les observacions i els pronòstics meteorològics.

Per canviar el mapa: feu clic els botons verds amb una creu de color negre per apropar; al botó verd amb un guió per allunyar la imatge; o en les fletxes verdes per a mapes adjacents.


METAR-TAF: